createdAt,value
2023-01-03T00:02:25.483Z,83.07
2023-01-03T00:04:52.432Z,81.45
2023-01-03T00:07:34.312Z,81.57
2023-01-03T00:10:09.019Z,80.89
2023-01-03T00:12:36.337Z,79.83
2023-01-03T00:15:03.741Z,79.93
2023-01-03T00:17:30.625Z,79.45
2023-01-03T00:19:57.486Z,80.26
2023-01-03T00:22:24.316Z,80.07
2023-01-03T00:24:53.058Z,80.54
2023-01-03T00:27:20.063Z,80.33
2023-01-03T00:29:47.063Z,80.18
2023-01-03T00:32:14.607Z,79.90
2023-01-03T00:34:45.009Z,79.56
2023-01-03T00:37:12.877Z,79.18
2023-01-03T00:39:39.889Z,79.67
2023-01-03T00:42:07.522Z,79.03
2023-01-03T00:44:34.432Z,79.59
2023-01-03T00:47:02.188Z,80.14
2023-01-03T00:49:29.148Z,79.45
2023-01-03T00:51:56.059Z,79.38
2023-01-03T00:54:23.389Z,78.89
2023-01-03T00:56:51.886Z,79.10
2023-01-03T00:59:20.213Z,79.18
2023-01-03T01:01:53.617Z,79.58
2023-01-03T01:04:29.840Z,79.50
2023-01-03T01:07:02.569Z,79.39
2023-01-03T01:09:33.655Z,78.46
2023-01-03T01:12:00.559Z,78.42
2023-01-03T01:14:29.416Z,78.82
2023-01-03T01:17:01.907Z,78.33
2023-01-03T01:19:50.631Z,78.30
2023-01-03T01:22:17.516Z,77.92
2023-01-03T01:24:44.417Z,78.39
2023-01-03T01:27:11.510Z,78.84
2023-01-03T01:29:39.162Z,79.16
2023-01-03T01:32:06.389Z,78.41
2023-01-03T01:34:33.277Z,78.99
2023-01-03T01:37:00.329Z,79.60
2023-01-03T01:39:28.736Z,79.78
2023-01-03T01:42:20.414Z,80.73
2023-01-03T01:45:02.499Z,81.06
2023-01-03T01:47:52.674Z,81.53
2023-01-03T01:50:25.950Z,81.45
2023-01-03T01:52:59.889Z,80.54
2023-01-03T01:55:31.693Z,80.38
2023-01-03T01:57:59.710Z,81.37
2023-01-03T02:00:27.037Z,81.65
2023-01-03T02:02:55.580Z,81.95
2023-01-03T02:05:23.728Z,82.03
2023-01-03T02:07:52.531Z,82.37
2023-01-03T02:10:35.108Z,82.39
2023-01-03T02:13:19.775Z,82.19
2023-01-03T02:15:46.754Z,83.23
2023-01-03T02:18:22.668Z,83.70
2023-01-03T02:21:20.532Z,83.11
2023-01-03T02:23:49.990Z,83.89
2023-01-03T02:26:22.669Z,84.44
2023-01-03T02:29:17.205Z,84.24
2023-01-03T02:31:49.336Z,84.06
2023-01-03T02:34:33.351Z,83.96
2023-01-03T02:37:09.121Z,84.38
2023-01-03T02:39:48.912Z,83.96
2023-01-03T02:42:57.203Z,84.48
2023-01-03T02:45:44.282Z,84.36
2023-01-03T02:48:39.434Z,83.96
2023-01-03T02:51:14.353Z,85.11
2023-01-03T02:53:46.522Z,85.30
2023-01-03T02:56:19.792Z,85.30
2023-01-03T02:58:50.951Z,85.04
2023-01-03T03:01:19.239Z,84.89
2023-01-03T03:03:47.941Z,85.59
2023-01-03T03:06:20.876Z,85.36
2023-01-03T03:08:48.416Z,87.38
2023-01-03T03:11:34.126Z,87.75
2023-01-03T03:26:26.057Z,92.48
2023-01-03T03:29:05.553Z,93.14
2023-01-03T03:31:39.823Z,92.15
2023-01-03T03:34:14.886Z,91.52
2023-01-03T03:36:41.759Z,91.15
2023-01-03T03:39:33.089Z,90.87
2023-01-03T03:42:48.126Z,90.41
2023-01-03T03:45:43.673Z,90.47
2023-01-03T03:48:20.001Z,90.06
2023-01-03T03:50:54.422Z,89.78
2023-01-03T03:53:25.540Z,89.50
2023-01-03T03:56:09.930Z,90.28
2023-01-03T03:58:46.316Z,90.23
2023-01-03T04:01:19.034Z,89.84
2023-01-03T04:03:48.475Z,89.88
2023-01-03T04:06:44.161Z,90.26
2023-01-03T04:09:11.563Z,89.84
2023-01-03T04:11:38.666Z,89.40
2023-01-03T04:14:05.579Z,89.96
2023-01-03T04:16:32.488Z,89.57
2023-01-03T04:18:59.451Z,89.33
2023-01-03T04:21:26.418Z,89.73
2023-01-03T04:23:53.352Z,89.85
2023-01-03T04:26:20.316Z,89.60
2023-01-03T04:28:47.287Z,89.48
2023-01-03T04:31:14.316Z,89.45
2023-01-03T04:33:41.204Z,89.13
2023-01-03T04:36:08.623Z,89.56
2023-01-03T04:38:35.541Z,90.29
2023-01-03T04:41:08.368Z,90.22
2023-01-03T04:43:54.108Z,90.87
2023-01-03T04:46:21.545Z,90.97
2023-01-03T04:48:48.685Z,91.34
2023-01-03T04:51:16.183Z,90.62
2023-01-03T04:53:43.021Z,90.52
2023-01-03T04:56:10.025Z,91.06
2023-01-03T04:58:36.882Z,90.64
2023-01-03T05:01:05.895Z,90.94
2023-01-03T05:03:32.875Z,91.41
2023-01-03T05:06:01.627Z,91.87
2023-01-03T05:08:28.649Z,91.93
2023-01-03T05:10:55.652Z,92.03
2023-01-03T05:13:23.074Z,91.48
2023-01-03T05:15:50.026Z,91.66
2023-01-03T05:18:17.028Z,92.11
2023-01-03T05:21:03.234Z,91.72
2023-01-03T05:23:48.926Z,91.42
2023-01-03T05:26:19.533Z,91.46
2023-01-03T05:28:50.012Z,91.92
2023-01-03T05:31:16.915Z,92.34
2023-01-03T05:33:44.007Z,92.27
2023-01-03T05:36:11.360Z,92.52
2023-01-03T05:38:38.803Z,92.35
2023-01-03T05:41:06.037Z,92.31
2023-01-03T05:43:33.373Z,92.20
2023-01-03T05:46:00.355Z,91.64
2023-01-03T05:48:27.521Z,91.44
2023-01-03T05:50:57.420Z,89.93
2023-01-03T05:53:24.906Z,88.42
2023-01-03T05:55:51.741Z,87.23
2023-01-03T05:58:18.676Z,85.45
2023-01-03T06:00:45.694Z,83.90
2023-01-03T06:03:13.930Z,82.81
2023-01-03T06:05:46.245Z,80.85
2023-01-03T06:08:17.674Z,79.21
2023-01-03T06:10:44.582Z,77.52
2023-01-03T06:13:11.694Z,75.05
2023-01-03T06:15:38.521Z,73.62
2023-01-03T06:18:05.355Z,74.19
2023-01-03T06:20:32.915Z,73.32
2023-01-03T06:22:59.816Z,73.06
2023-01-03T06:25:27.272Z,71.31
2023-01-03T06:27:55.792Z,68.30
2023-01-03T06:30:22.796Z,66.81
2023-01-03T06:32:49.819Z,67.02
2023-01-03T06:35:16.845Z,66.27
2023-01-03T06:37:43.825Z,62.49
2023-01-03T06:40:11.250Z,59.26
2023-01-03T06:42:43.221Z,59.50
2023-01-03T06:45:31.295Z,57.21
2023-01-03T06:48:17.838Z,52.81
2023-01-03T06:51:03.285Z,53.86
2023-01-03T06:53:36.682Z,53.19
2023-01-03T06:56:04.770Z,53.28
2023-01-03T06:58:31.687Z,48.50
2023-01-03T07:01:02.853Z,52.94
2023-01-03T07:03:31.245Z,52.62
2023-01-03T07:05:58.178Z,51.76
2023-01-03T07:08:24.987Z,52.65
2023-01-03T07:10:51.890Z,50.17
2023-01-03T07:13:37.349Z,49.26
2023-01-03T07:16:04.393Z,47.15
2023-01-03T07:18:31.907Z,45.94
2023-01-03T07:20:58.771Z,45.02
2023-01-03T07:23:25.726Z,44.82
2023-01-03T07:25:55.569Z,44.47
2023-01-03T07:28:23.498Z,43.98
2023-01-03T07:30:50.576Z,42.54
2023-01-03T07:33:18.379Z,41.46
2023-01-03T07:35:45.822Z,40.16
2023-01-03T07:38:14.879Z,39.60
2023-01-03T07:40:41.875Z,41.20
2023-01-03T07:43:31.819Z,41.92
2023-01-03T07:45:58.669Z,41.08
2023-01-03T07:48:25.680Z,40.56
2023-01-03T07:50:58.222Z,39.38
2023-01-03T07:53:25.953Z,37.55
2023-01-03T07:55:52.794Z,38.64
2023-01-03T07:58:19.720Z,36.71
2023-01-03T08:00:46.646Z,36.95
2023-01-03T08:03:14.548Z,36.60
2023-01-03T08:05:41.500Z,36.67
2023-01-03T08:08:09.177Z,37.67
2023-01-03T08:10:54.500Z,39.26
2023-01-03T08:13:21.958Z,39.29
2023-01-03T08:15:55.440Z,39.07
2023-01-03T08:18:27.641Z,37.33
2023-01-03T08:20:57.279Z,36.32
2023-01-03T08:23:25.205Z,38.58
2023-01-03T08:25:52.854Z,40.00
2023-01-03T08:28:19.851Z,39.84
2023-01-03T08:30:49.575Z,38.17
2023-01-03T08:33:18.824Z,35.90
2023-01-03T08:36:00.633Z,35.47
2023-01-03T08:38:35.627Z,34.85
2023-01-03T08:41:04.564Z,33.31
2023-01-03T08:43:36.123Z,35.72
2023-01-03T08:46:07.282Z,36.56
2023-01-03T08:48:34.426Z,36.25
2023-01-03T08:51:02.203Z,33.74
2023-01-03T08:53:29.101Z,34.95
2023-01-03T08:55:57.072Z,32.77
2023-01-03T08:58:24.031Z,31.58
2023-01-03T09:00:50.933Z,31.05
2023-01-03T09:03:18.436Z,30.92
2023-01-03T09:05:46.041Z,31.53
2023-01-03T09:08:12.833Z,30.61
2023-01-03T09:10:47.152Z,31.52
2023-01-03T09:13:14.659Z,31.30
2023-01-03T09:15:41.608Z,31.74
2023-01-03T09:18:09.117Z,32.11
2023-01-03T09:20:36.026Z,32.38
2023-01-03T09:23:02.954Z,31.80
2023-01-03T09:25:36.526Z,31.88
2023-01-03T09:28:04.221Z,32.06
2023-01-03T09:30:31.195Z,31.58
2023-01-03T09:32:58.139Z,30.09
2023-01-03T09:35:25.020Z,30.54
2023-01-03T09:37:51.862Z,30.89
2023-01-03T09:40:18.839Z,30.13
2023-01-03T09:43:04.416Z,27.83
2023-01-03T09:45:34.453Z,29.54
2023-01-03T09:48:04.436Z,29.81
2023-01-03T09:50:57.166Z,28.95
2023-01-03T09:53:56.520Z,26.35
2023-01-03T09:56:41.758Z,25.75
2023-01-03T09:59:33.912Z,26.47
2023-01-03T10:02:22.405Z,26.08
2023-01-03T10:05:04.687Z,27.95
2023-01-03T10:08:13.107Z,26.68
2023-01-03T10:11:09.713Z,27.57
2023-01-03T10:14:09.578Z,28.23
2023-01-03T10:17:09.622Z,26.04
2023-01-03T10:20:08.867Z,25.72
2023-01-03T10:22:37.764Z,24.71
2023-01-03T10:25:04.585Z,24.46
2023-01-03T10:27:34.585Z,26.34
2023-01-03T10:30:05.272Z,25.38
2023-01-03T10:32:50.592Z,24.94
2023-01-03T10:35:17.417Z,23.96
2023-01-03T10:37:45.254Z,24.31
2023-01-03T10:40:13.459Z,23.86
2023-01-03T10:42:42.283Z,24.25
2023-01-03T10:45:19.509Z,24.25
2023-01-03T10:47:59.641Z,24.26
2023-01-03T10:50:28.862Z,24.20
2023-01-03T10:53:04.341Z,23.44
2023-01-03T10:55:35.134Z,25.05
2023-01-03T10:58:13.690Z,24.02
2023-01-03T11:00:40.714Z,23.20
2023-01-03T11:03:18.234Z,22.13
2023-01-03T11:05:48.091Z,22.90
2023-01-03T11:08:43.403Z,23.03
2023-01-03T11:11:34.996Z,22.24
2023-01-03T11:14:24.511Z,22.20
2023-01-03T11:16:58.614Z,22.13
2023-01-03T11:19:31.475Z,22.36
2023-01-03T11:22:14.706Z,22.11
2023-01-03T11:25:08.128Z,22.15
2023-01-03T11:28:01.023Z,22.33
2023-01-03T11:30:45.953Z,19.42
2023-01-03T11:33:36.373Z,21.22
2023-01-03T11:36:32.459Z,20.17
2023-01-03T11:39:20.104Z,19.02
2023-01-03T11:42:14.417Z,19.32
2023-01-03T11:45:05.500Z,20.24
2023-01-03T11:48:09.840Z,23.24
2023-01-03T11:50:55.124Z,24.63
2023-01-03T11:53:40.370Z,23.07
2023-01-03T11:56:19.000Z,23.58
2023-01-03T11:58:48.726Z,23.83
2023-01-03T12:01:42.809Z,23.33
2023-01-03T12:04:27.493Z,25.84
2023-01-03T12:07:45.870Z,30.80
2023-01-03T12:10:15.780Z,31.30
2023-01-03T12:12:52.737Z,31.89
2023-01-03T12:15:25.849Z,34.60
2023-01-03T12:17:58.715Z,33.56
2023-01-03T12:20:44.025Z,31.93
2023-01-03T12:23:37.571Z,33.57
2023-01-03T12:26:08.846Z,31.63
2023-01-03T12:28:40.920Z,31.17
2023-01-03T12:31:17.031Z,29.86
2023-01-03T12:34:17.877Z,31.18
2023-01-03T12:37:15.846Z,30.10
2023-01-03T12:39:57.565Z,31.02
2023-01-03T12:42:32.171Z,33.45
2023-01-03T12:45:08.202Z,36.60
2023-01-03T12:47:43.140Z,41.40
2023-01-03T12:50:40.575Z,46.02
2023-01-03T12:53:27.159Z,50.44
2023-01-03T12:56:36.725Z,51.96
2023-01-03T12:59:17.529Z,55.13
2023-01-03T13:01:53.584Z,57.33
2023-01-03T13:04:29.142Z,58.44
2023-01-03T13:07:02.228Z,60.38
2023-01-03T13:09:37.080Z,62.71
2023-01-03T13:12:21.608Z,64.76
2023-01-03T13:14:57.419Z,65.52
2023-01-03T13:17:28.466Z,66.63
2023-01-03T13:20:14.497Z,67.12
2023-01-03T13:22:58.583Z,67.50
2023-01-03T13:25:41.587Z,67.99
2023-01-03T13:28:31.210Z,68.64
2023-01-03T13:31:14.487Z,69.16
2023-01-03T13:33:55.473Z,69.41
2023-01-03T13:36:24.491Z,69.44
2023-01-03T13:38:54.134Z,70.55
2023-01-03T13:41:39.059Z,70.14
2023-01-03T13:44:19.896Z,70.98
2023-01-03T13:46:48.229Z,71.06
2023-01-03T13:49:21.283Z,71.03
2023-01-03T13:51:56.952Z,70.63
2023-01-03T13:54:56.351Z,71.67
2023-01-03T13:57:35.477Z,71.85
2023-01-03T14:00:10.191Z,73.03
2023-01-03T14:03:14.695Z,73.44
2023-01-03T14:06:19.110Z,74.37
2023-01-03T14:09:10.886Z,74.29
2023-01-03T14:11:43.750Z,73.85
2023-01-03T14:14:14.855Z,73.92
2023-01-03T14:16:51.086Z,74.69
2023-01-03T14:19:32.529Z,75.57
2023-01-03T14:22:28.018Z,75.00
2023-01-03T14:24:57.665Z,74.04
2023-01-03T14:27:32.806Z,73.77
2023-01-03T14:30:00.754Z,73.70
2023-01-03T14:32:36.038Z,74.52
2023-01-03T14:35:04.432Z,74.28
2023-01-03T14:37:33.275Z,73.25
2023-01-03T14:40:03.217Z,74.28
2023-01-03T14:42:30.106Z,73.92
2023-01-03T14:45:04.006Z,73.77
2023-01-03T14:47:41.505Z,73.38
2023-01-03T14:50:15.519Z,73.34
2023-01-03T14:52:45.864Z,74.56
2023-01-03T14:55:18.742Z,74.71
2023-01-03T14:57:48.310Z,75.70
2023-01-03T15:00:17.886Z,76.68
2023-01-03T15:02:46.395Z,77.28
2023-01-03T15:05:35.658Z,78.62
2023-01-03T15:08:15.146Z,79.39
2023-01-03T15:10:47.917Z,80.74
2023-01-03T15:13:20.446Z,80.20
2023-01-03T15:28:56.481Z,85.64
2023-01-03T15:31:37.243Z,85.83
2023-01-03T15:34:16.582Z,84.45
2023-01-03T15:37:19.669Z,83.32
2023-01-03T15:39:49.582Z,83.02
2023-01-03T15:42:56.447Z,82.84
2023-01-03T15:45:28.567Z,81.48
2023-01-03T15:47:59.672Z,80.26
2023-01-03T15:50:40.296Z,79.60
2023-01-03T15:53:30.017Z,79.05
2023-01-03T15:56:13.004Z,77.68
2023-01-03T15:58:40.464Z,77.15
2023-01-03T16:01:08.835Z,76.35
2023-01-03T16:03:36.601Z,75.89
2023-01-03T16:06:04.042Z,74.80
2023-01-03T16:08:38.835Z,74.80
2023-01-03T16:11:11.902Z,74.64
2023-01-03T16:13:45.667Z,74.48
2023-01-03T16:16:16.608Z,73.86
2023-01-03T16:18:45.475Z,73.48
2023-01-03T16:21:13.713Z,73.01
2023-01-03T16:23:41.037Z,72.71
2023-01-03T16:26:08.503Z,72.70
2023-01-03T16:28:35.609Z,72.77
2023-01-03T16:31:44.666Z,72.46
2023-01-03T16:34:20.080Z,72.89
2023-01-03T16:36:48.128Z,72.75
2023-01-03T16:39:20.941Z,72.01
2023-01-03T16:42:07.554Z,71.95
2023-01-03T16:44:36.977Z,72.24
2023-01-03T16:47:26.380Z,72.16
2023-01-03T16:49:57.698Z,71.27
2023-01-03T16:52:27.594Z,71.96
2023-01-03T16:54:55.108Z,72.16
2023-01-03T16:57:22.563Z,72.38
2023-01-03T16:59:49.930Z,72.59
2023-01-03T17:02:17.251Z,72.44
2023-01-03T17:04:44.818Z,72.68
2023-01-03T17:07:23.928Z,72.91
2023-01-03T17:09:51.844Z,73.09
2023-01-03T17:12:22.392Z,73.08
2023-01-03T17:14:50.292Z,73.50
2023-01-03T17:17:20.853Z,73.06
2023-01-03T17:20:05.612Z,74.49
2023-01-03T17:22:33.362Z,75.38
2023-01-03T17:25:00.322Z,76.04
2023-01-03T17:27:32.551Z,76.39
2023-01-03T17:30:03.613Z,76.53
2023-01-03T17:32:30.734Z,77.04
2023-01-03T17:34:57.866Z,77.30
2023-01-03T17:37:25.794Z,76.82
2023-01-03T17:39:59.614Z,76.95
2023-01-03T17:42:27.060Z,76.98
2023-01-03T17:45:12.229Z,76.47
2023-01-03T17:48:00.606Z,76.04
2023-01-03T17:50:32.287Z,76.07
2023-01-03T17:53:01.979Z,76.03
2023-01-03T17:55:30.727Z,74.33
2023-01-03T17:58:01.747Z,74.05
2023-01-03T18:00:30.832Z,73.95
2023-01-03T18:03:00.539Z,73.88
2023-01-03T18:05:29.041Z,74.00
2023-01-03T18:08:01.427Z,74.98
2023-01-03T18:10:46.203Z,74.96
2023-01-03T18:13:24.201Z,75.46
2023-01-03T18:15:51.814Z,76.53
2023-01-03T18:18:20.400Z,76.51
2023-01-03T18:20:47.989Z,76.85
2023-01-03T18:23:25.217Z,77.73
2023-01-03T18:25:53.241Z,77.46
2023-01-03T18:28:28.448Z,78.15
2023-01-03T18:30:56.262Z,78.36
2023-01-03T18:33:24.138Z,77.45
2023-01-03T18:35:52.626Z,78.04
2023-01-03T18:38:32.349Z,77.67
2023-01-03T18:41:04.773Z,77.06
2023-01-03T18:43:32.590Z,77.39
2023-01-03T18:45:59.617Z,76.79
2023-01-03T18:48:26.455Z,77.06
2023-01-03T18:50:58.803Z,76.94
2023-01-03T18:53:29.433Z,76.69
2023-01-03T18:55:56.488Z,76.36
2023-01-03T18:58:31.712Z,76.62
2023-01-03T19:00:58.809Z,76.19
2023-01-03T19:03:28.203Z,76.38
2023-01-03T19:05:55.555Z,75.95
2023-01-03T19:08:25.775Z,76.68
2023-01-03T19:10:53.117Z,76.44
2023-01-03T19:13:50.395Z,76.39
2023-01-03T19:16:26.559Z,75.74
2023-01-03T19:18:54.590Z,76.05
2023-01-03T19:21:23.411Z,76.82
2023-01-03T19:23:59.950Z,75.74
2023-01-03T19:26:34.698Z,76.13
2023-01-03T19:29:04.962Z,75.78
2023-01-03T19:31:43.975Z,76.03
2023-01-03T19:34:16.014Z,76.22
2023-01-03T19:36:43.180Z,76.48
2023-01-03T19:39:11.708Z,76.06
2023-01-03T19:42:04.129Z,75.78
2023-01-03T19:44:31.956Z,76.29
2023-01-03T19:46:59.482Z,75.81
2023-01-03T19:49:26.726Z,76.06
2023-01-03T19:51:53.768Z,76.27
2023-01-03T19:54:20.680Z,76.22
2023-01-03T19:56:58.661Z,76.33
2023-01-03T19:59:35.265Z,76.30
2023-01-03T20:02:24.806Z,76.87
2023-01-03T20:04:52.443Z,77.38
2023-01-03T20:07:19.504Z,77.58
2023-01-03T20:09:46.353Z,78.21
2023-01-03T20:12:15.521Z,78.55
2023-01-03T20:14:47.497Z,78.38
2023-01-03T20:17:26.135Z,79.03
2023-01-03T20:19:53.486Z,78.74
2023-01-03T20:23:02.368Z,79.34
2023-01-03T20:25:23.417Z,79.28
2023-01-03T20:27:51.155Z,79.55
2023-01-03T20:30:19.925Z,79.45
2023-01-03T20:32:46.874Z,79.12
2023-01-03T20:36:06.961Z,79.76
2023-01-03T20:38:05.446Z,79.78
2023-01-03T20:40:32.350Z,79.42
2023-01-03T20:43:02.302Z,79.35
2023-01-03T20:45:30.053Z,79.40
2023-01-03T20:47:56.834Z,79.07
2023-01-03T20:50:26.898Z,79.30
2023-01-03T20:52:55.202Z,79.55
2023-01-03T20:55:24.050Z,79.42
2023-01-03T20:57:51.841Z,80.04
2023-01-03T21:00:32.055Z,80.26
2023-01-03T21:02:59.201Z,80.80
2023-01-03T21:05:26.913Z,80.79
2023-01-03T21:08:12.628Z,80.21
2023-01-03T21:10:42.466Z,80.61
2023-01-03T21:13:10.234Z,81.56
2023-01-03T21:15:38.036Z,81.69
2023-01-03T21:18:06.379Z,81.45
2023-01-03T21:20:33.939Z,81.26
2023-01-03T21:23:00.936Z,81.60
2023-01-03T21:25:35.487Z,81.71
2023-01-03T21:28:03.419Z,82.39
2023-01-03T21:30:32.171Z,82.67
2023-01-03T21:33:01.876Z,82.67
2023-01-03T21:35:28.727Z,82.68
2023-01-03T21:37:55.683Z,83.17
2023-01-03T21:40:28.393Z,82.20
2023-01-03T21:43:04.007Z,82.32
2023-01-03T21:45:40.115Z,82.14
2023-01-03T21:48:10.760Z,82.55
2023-01-03T21:50:39.988Z,82.50
2023-01-03T21:53:07.217Z,81.92
2023-01-03T21:55:34.176Z,82.87
2023-01-03T21:58:01.387Z,83.52
2023-01-03T22:00:28.284Z,84.05
2023-01-03T22:03:13.573Z,84.05
2023-01-03T22:05:40.557Z,84.25
2023-01-03T22:08:07.389Z,84.08
2023-01-03T22:10:34.801Z,83.67
2023-01-03T22:13:04.522Z,83.79
2023-01-03T22:15:31.418Z,84.73
2023-01-03T22:17:58.237Z,84.17
2023-01-03T22:20:26.162Z,84.52
2023-01-03T22:22:53.804Z,83.94
2023-01-03T22:25:23.732Z,84.04
2023-01-03T22:27:53.594Z,84.53
2023-01-03T22:30:20.865Z,84.56
2023-01-03T22:32:48.142Z,84.37
2023-01-03T22:35:17.852Z,84.06
2023-01-03T22:37:45.119Z,84.39
2023-01-03T22:40:15.137Z,84.82
2023-01-03T22:42:42.163Z,84.16
2023-01-03T22:45:10.356Z,83.86
2023-01-03T22:47:37.988Z,83.85
2023-01-03T22:50:06.519Z,84.71
2023-01-03T22:52:34.125Z,84.27
2023-01-03T22:55:01.350Z,83.57
2023-01-03T22:57:28.276Z,84.27
2023-01-03T22:59:55.098Z,83.60
2023-01-03T23:02:28.099Z,84.72
2023-01-03T23:04:55.997Z,85.20
2023-01-03T23:07:22.818Z,85.81
2023-01-03T23:09:49.579Z,86.51
2023-01-03T23:12:34.834Z,87.48
2023-01-03T23:15:02.167Z,88.47
2023-01-03T23:17:47.704Z,88.51
2023-01-03T23:20:14.641Z,89.55
2023-01-03T23:22:43.822Z,90.16
2023-01-03T23:25:10.734Z,90.76
2023-01-03T23:27:37.660Z,90.31
2023-01-03T23:30:05.164Z,90.09
2023-01-03T23:32:32.852Z,90.24
2023-01-03T23:34:59.796Z,90.44
2023-01-03T23:37:27.227Z,90.11
2023-01-03T23:39:54.105Z,90.38
2023-01-03T23:42:20.933Z,90.91
2023-01-03T23:44:47.696Z,90.85
2023-01-03T23:47:14.566Z,91.46
2023-01-03T23:49:41.548Z,90.88
2023-01-03T23:52:08.685Z,91.57
2023-01-03T23:54:35.541Z,92.35
2023-01-03T23:57:02.403Z,91.62
2023-01-03T23:59:29.223Z,92.22
